createdAt,value
2018-06-30T00:01:45.917Z,19.30
2018-06-30T00:04:14.886Z,19.30
2018-06-30T00:09:12.386Z,19.30
2018-06-30T00:11:41.325Z,19.20
2018-06-30T00:14:10.300Z,19.10
2018-06-30T00:16:39.274Z,19.00
2018-06-30T00:19:08.242Z,18.90
2018-06-30T00:21:37.217Z,18.80
2018-06-30T00:24:06.385Z,18.80
2018-06-30T00:26:35.922Z,18.80
2018-06-30T00:29:05.093Z,18.90
2018-06-30T00:31:34.049Z,18.80
2018-06-30T00:34:03.008Z,18.80
2018-06-30T00:36:31.986Z,18.80
2018-06-30T00:39:00.957Z,18.70
2018-06-30T00:41:29.933Z,18.70
2018-06-30T00:43:58.858Z,18.60
2018-06-30T00:46:27.802Z,18.60
2018-06-30T00:48:57.309Z,18.50
2018-06-30T00:51:26.283Z,18.50
2018-06-30T00:53:55.238Z,18.40
2018-06-30T00:56:24.213Z,18.40
2018-06-30T00:58:53.207Z,18.30
2018-06-30T01:01:22.249Z,18.30
2018-06-30T01:03:51.264Z,18.30
2018-06-30T01:06:20.257Z,18.20
2018-06-30T01:08:49.241Z,18.20
2018-06-30T01:11:18.966Z,18.20
2018-06-30T01:13:47.949Z,18.20
2018-06-30T01:16:16.953Z,18.20
2018-06-30T01:18:45.874Z,18.10
2018-06-30T01:21:14.845Z,18.10
2018-06-30T01:23:43.762Z,18.10
2018-06-30T01:26:14.019Z,18.10
2018-06-30T01:28:42.982Z,18.00
2018-06-30T01:31:11.942Z,18.00
2018-06-30T01:33:40.872Z,18.00
2018-06-30T01:36:09.836Z,18.10
2018-06-30T01:38:38.786Z,18.10
2018-06-30T01:41:07.768Z,18.10
2018-06-30T01:43:36.697Z,18.10
2018-06-30T01:46:05.667Z,18.20
2018-06-30T01:48:34.658Z,18.10
2018-06-30T01:51:05.221Z,18.00
2018-06-30T01:53:34.210Z,17.90
2018-06-30T01:56:03.175Z,17.80
2018-06-30T01:58:32.113Z,17.80
2018-06-30T02:01:01.065Z,17.80
2018-06-30T02:03:30.021Z,17.70
2018-06-30T02:05:59.029Z,17.70
2018-06-30T02:08:27.953Z,17.70
2018-06-30T02:10:56.943Z,17.80
2018-06-30T02:13:25.886Z,17.80
2018-06-30T02:18:23.307Z,17.70
2018-06-30T02:20:52.264Z,17.70
2018-06-30T02:25:49.689Z,17.60
2018-06-30T02:28:18.645Z,17.60
2018-06-30T02:30:47.631Z,17.50
2018-06-30T02:33:19.341Z,17.40
2018-06-30T02:35:48.361Z,17.40
2018-06-30T02:38:17.289Z,17.40
2018-06-30T02:40:46.334Z,17.40
2018-06-30T02:43:15.282Z,17.50
2018-06-30T02:45:44.225Z,17.40
2018-06-30T02:48:13.149Z,17.30
2018-06-30T03:00:44.204Z,17.10
2018-06-30T03:03:13.145Z,17.10
2018-06-30T03:05:42.093Z,17.00
2018-06-30T03:08:11.035Z,17.00
2018-06-30T03:10:39.965Z,17.10
2018-06-30T03:13:08.910Z,17.00
2018-06-30T03:15:37.878Z,17.10
2018-06-30T03:18:07.036Z,17.10
2018-06-30T03:20:35.998Z,17.00
2018-06-30T03:23:05.005Z,17.10
2018-06-30T03:25:33.936Z,17.00
2018-06-30T03:28:02.894Z,17.00
2018-06-30T03:30:31.812Z,17.00
2018-06-30T03:33:00.749Z,17.00
2018-06-30T03:35:29.674Z,17.10
2018-06-30T03:37:58.602Z,17.00
2018-06-30T03:40:27.529Z,17.10
2018-06-30T03:42:56.580Z,17.00
2018-06-30T03:45:25.559Z,17.00
2018-06-30T03:47:54.477Z,17.00
2018-06-30T03:50:23.469Z,17.10
2018-06-30T03:52:52.397Z,17.10
2018-06-30T03:55:21.369Z,17.10
2018-06-30T04:00:18.780Z,17.00
2018-06-30T04:02:47.733Z,16.90
2018-06-30T04:05:16.682Z,16.90
2018-06-30T04:07:45.625Z,16.80
2018-06-30T04:10:14.568Z,16.80
2018-06-30T04:12:43.573Z,16.70
2018-06-30T04:15:12.594Z,16.70
2018-06-30T04:17:41.570Z,16.60
2018-06-30T04:20:10.522Z,16.70
2018-06-30T04:22:39.453Z,16.70
2018-06-30T04:25:08.401Z,16.70
2018-06-30T04:27:37.358Z,16.70
2018-06-30T04:30:06.453Z,16.70
2018-06-30T04:32:35.409Z,16.90
2018-06-30T04:35:04.535Z,16.70
2018-06-30T04:37:33.460Z,16.70
2018-06-30T04:40:02.417Z,16.70
2018-06-30T04:42:31.367Z,16.70
2018-06-30T04:45:00.322Z,16.70
2018-06-30T04:47:29.793Z,16.70
2018-06-30T04:49:59.077Z,16.70
2018-06-30T04:52:28.022Z,16.70
2018-06-30T04:54:56.968Z,16.70
2018-06-30T04:57:25.904Z,16.80
2018-06-30T04:59:54.821Z,16.80
2018-06-30T05:02:23.768Z,16.80
2018-06-30T05:04:52.678Z,16.90
2018-06-30T05:07:21.585Z,16.90
2018-06-30T05:09:50.513Z,17.10
2018-06-30T05:12:19.509Z,17.20
2018-06-30T05:14:48.430Z,17.30
2018-06-30T05:17:17.393Z,17.30
2018-06-30T05:19:46.308Z,17.30
2018-06-30T05:22:15.255Z,17.40
2018-06-30T05:24:44.221Z,17.50
2018-06-30T05:27:13.151Z,17.50
2018-06-30T05:29:42.069Z,17.70
2018-06-30T05:32:10.996Z,17.80
2018-06-30T05:34:39.956Z,18.00
2018-06-30T05:37:08.900Z,18.10
2018-06-30T05:39:37.810Z,18.30
2018-06-30T05:42:06.806Z,18.50
2018-06-30T05:44:35.805Z,18.60
2018-06-30T05:47:04.839Z,18.70
2018-06-30T05:49:33.757Z,18.80
2018-06-30T05:52:02.741Z,19.00
2018-06-30T05:54:31.755Z,19.20
2018-06-30T05:57:00.732Z,19.50
2018-06-30T05:59:31.213Z,20.10
2018-06-30T06:02:00.169Z,20.60
2018-06-30T06:04:29.149Z,21.20
2018-06-30T06:06:58.065Z,21.80
2018-06-30T06:09:27.002Z,22.40
2018-06-30T06:11:55.921Z,23.00
2018-06-30T06:14:24.897Z,23.50
2018-06-30T06:16:53.853Z,24.00
2018-06-30T06:19:22.905Z,24.50
2018-06-30T06:21:51.925Z,25.10
2018-06-30T06:24:20.910Z,25.50
2018-06-30T06:26:49.859Z,25.90
2018-06-30T06:29:18.793Z,26.30
2018-06-30T06:31:47.757Z,26.60
2018-06-30T06:34:16.688Z,27.00
2018-06-30T06:36:45.612Z,27.40
2018-06-30T06:39:14.520Z,27.70
2018-06-30T06:41:43.472Z,27.90
2018-06-30T06:44:12.365Z,28.10
2018-06-30T06:46:41.265Z,28.20
2018-06-30T06:49:10.165Z,28.50
2018-06-30T06:51:39.069Z,28.70
2018-06-30T06:54:07.972Z,28.80
2018-06-30T06:56:36.922Z,28.90
2018-06-30T06:59:05.921Z,29.10
2018-06-30T07:01:37.147Z,29.10
2018-06-30T07:04:06.128Z,29.20
2018-06-30T07:06:35.029Z,29.20
2018-06-30T07:11:32.657Z,29.40
2018-06-30T07:14:01.557Z,29.40
2018-06-30T07:16:30.470Z,29.50
2018-06-30T07:18:59.716Z,29.50
2018-06-30T07:21:28.655Z,29.50
2018-06-30T07:23:58.370Z,29.60
2018-06-30T07:26:27.309Z,29.90
2018-06-30T07:28:56.253Z,30.00
2018-06-30T07:31:25.198Z,30.10
2018-06-30T07:33:54.153Z,30.20
2018-06-30T07:36:23.082Z,30.30
2018-06-30T07:38:52.417Z,30.40
2018-06-30T07:41:21.382Z,30.50
2018-06-30T07:43:50.469Z,30.60
2018-06-30T07:46:19.421Z,30.60
2018-06-30T07:48:48.325Z,30.60
2018-06-30T07:51:17.261Z,30.60
2018-06-30T07:53:46.230Z,30.60
2018-06-30T07:56:15.195Z,30.70
2018-06-30T08:01:12.712Z,30.80
2018-06-30T08:03:41.657Z,30.70
2018-06-30T08:06:10.580Z,30.70
2018-06-30T08:08:40.689Z,30.70
2018-06-30T08:11:09.606Z,30.70
2018-06-30T08:13:38.588Z,30.70
2018-06-30T08:16:07.645Z,30.80
2018-06-30T08:18:36.565Z,30.80
2018-06-30T08:21:05.586Z,30.80
2018-06-30T08:23:34.548Z,30.70
2018-06-30T08:26:03.613Z,30.80
2018-06-30T08:28:32.628Z,30.80
2018-06-30T08:31:01.590Z,30.90
2018-06-30T08:33:30.569Z,31.00
2018-06-30T08:35:59.545Z,31.10
2018-06-30T08:38:28.516Z,31.30
2018-06-30T08:40:57.481Z,31.30
2018-06-30T08:43:26.422Z,31.50
2018-06-30T08:45:56.980Z,31.40
2018-06-30T08:48:26.000Z,31.50
2018-06-30T08:50:54.968Z,31.50
2018-06-30T08:53:23.962Z,31.60
2018-06-30T08:55:54.464Z,31.50
2018-06-30T08:58:24.212Z,31.50
2018-06-30T09:00:53.778Z,31.40
2018-06-30T09:03:22.769Z,31.40
2018-06-30T09:05:51.689Z,31.50
2018-06-30T09:08:20.617Z,31.60
2018-06-30T09:13:18.109Z,31.40
2018-06-30T09:15:47.017Z,31.40
2018-06-30T09:18:15.977Z,31.40
2018-06-30T09:20:44.941Z,31.40
2018-06-30T09:23:13.909Z,31.40
2018-06-30T09:25:42.861Z,31.40
2018-06-30T09:28:11.845Z,31.30
2018-06-30T09:30:40.873Z,31.50
2018-06-30T09:33:09.787Z,31.60
2018-06-30T09:35:38.720Z,31.70
2018-06-30T09:38:07.671Z,31.80
2018-06-30T09:40:36.615Z,31.90
2018-06-30T09:43:05.608Z,32.10
2018-06-30T09:45:34.537Z,32.30
2018-06-30T09:48:03.626Z,32.30
2018-06-30T09:50:32.585Z,32.40
2018-06-30T09:53:01.585Z,32.60
2018-06-30T09:55:30.540Z,32.70
2018-06-30T10:00:33.432Z,32.80
2018-06-30T10:03:02.507Z,32.90
2018-06-30T10:05:31.449Z,33.00
2018-06-30T10:08:00.386Z,33.00
2018-06-30T10:10:29.302Z,33.00
2018-06-30T10:12:58.232Z,33.10
2018-06-30T10:15:27.806Z,33.20
2018-06-30T10:17:56.908Z,33.40
2018-06-30T10:20:25.881Z,33.50
2018-06-30T10:22:54.872Z,33.50
2018-06-30T10:25:23.800Z,33.50
2018-06-30T10:27:52.759Z,33.50
2018-06-30T10:30:21.711Z,33.50
2018-06-30T10:32:50.747Z,33.60
2018-06-30T10:35:19.678Z,33.70
2018-06-30T10:37:48.598Z,33.80
2018-06-30T10:40:17.520Z,33.90
2018-06-30T10:42:46.443Z,33.90
2018-06-30T10:45:15.494Z,34.00
2018-06-30T10:47:45.473Z,34.00
2018-06-30T10:50:14.693Z,33.90
2018-06-30T10:52:43.680Z,34.00
2018-06-30T10:55:14.949Z,34.10
2018-06-30T10:57:45.588Z,34.20
2018-06-30T11:00:14.885Z,34.20
2018-06-30T11:02:43.889Z,34.20
2018-06-30T11:05:12.915Z,34.30
2018-06-30T11:07:42.562Z,34.40
2018-06-30T11:10:11.617Z,34.60
2018-06-30T11:12:40.746Z,34.80
2018-06-30T11:15:09.806Z,34.90
2018-06-30T11:17:38.811Z,35.00
2018-06-30T11:20:07.912Z,35.00
2018-06-30T11:22:36.865Z,35.00
2018-06-30T11:25:06.444Z,34.90
2018-06-30T11:27:35.449Z,34.80
2018-06-30T11:30:05.163Z,34.90
2018-06-30T11:32:34.536Z,35.00
2018-06-30T11:35:03.552Z,35.10
2018-06-30T11:37:32.717Z,35.10
2018-06-30T11:40:01.631Z,35.00
2018-06-30T11:42:30.566Z,35.10
2018-06-30T11:44:59.493Z,35.10
2018-06-30T11:47:28.434Z,35.20
2018-06-30T11:49:57.340Z,35.20
2018-06-30T11:52:26.279Z,35.30
2018-06-30T11:54:55.569Z,35.40
2018-06-30T11:57:24.526Z,35.50
2018-06-30T11:59:53.464Z,35.50
2018-06-30T12:02:22.424Z,35.60
2018-06-30T12:04:51.333Z,35.70
2018-06-30T12:07:20.241Z,35.70
2018-06-30T12:09:49.213Z,35.70
2018-06-30T12:12:18.169Z,35.70
2018-06-30T12:14:47.090Z,35.60
2018-06-30T12:17:16.001Z,35.60
2018-06-30T12:19:44.976Z,35.40
2018-06-30T12:22:13.884Z,35.40
2018-06-30T12:24:42.861Z,35.50
2018-06-30T12:27:11.801Z,35.40
2018-06-30T12:29:40.719Z,35.40
2018-06-30T12:32:09.652Z,35.40
2018-06-30T12:34:38.609Z,35.40
2018-06-30T12:37:07.776Z,35.50
2018-06-30T12:39:40.168Z,35.50
2018-06-30T12:42:09.320Z,35.50
2018-06-30T12:44:38.263Z,35.50
2018-06-30T12:47:07.701Z,35.50
2018-06-30T12:49:37.970Z,35.60
2018-06-30T12:52:07.998Z,35.70
2018-06-30T12:54:37.128Z,35.70
2018-06-30T12:57:06.029Z,35.60
2018-06-30T12:59:36.376Z,35.50
2018-06-30T13:02:05.424Z,35.40
2018-06-30T13:04:34.441Z,35.40
2018-06-30T13:07:03.613Z,35.30
2018-06-30T13:09:32.746Z,35.30
2018-06-30T13:12:01.730Z,35.10
2018-06-30T13:14:30.685Z,35.00
2018-06-30T13:17:00.150Z,35.10
2018-06-30T13:19:29.721Z,35.00
2018-06-30T13:21:58.751Z,35.00
2018-06-30T13:24:27.710Z,35.00
2018-06-30T13:26:56.647Z,35.00
2018-06-30T13:29:26.118Z,35.10
2018-06-30T13:31:55.110Z,35.00
2018-06-30T13:34:24.022Z,35.00
2018-06-30T13:39:21.465Z,34.90
2018-06-30T13:41:50.381Z,34.80
2018-06-30T13:44:19.282Z,34.80
2018-06-30T13:46:48.246Z,34.90
2018-06-30T13:49:17.206Z,34.80
2018-06-30T13:51:46.125Z,34.80
2018-06-30T13:54:15.033Z,34.80
2018-06-30T13:56:43.999Z,34.80
2018-06-30T13:59:12.949Z,34.80
2018-06-30T14:01:41.918Z,34.80
2018-06-30T14:04:10.881Z,34.80
2018-06-30T14:06:39.790Z,34.80
2018-06-30T14:09:10.418Z,34.70
2018-06-30T14:11:39.380Z,34.80
2018-06-30T14:14:08.904Z,34.60
2018-06-30T14:16:37.860Z,34.50
2018-06-30T14:19:06.789Z,34.40
2018-06-30T14:21:35.725Z,34.40
2018-06-30T14:24:04.714Z,34.50
2018-06-30T14:26:33.636Z,34.30
2018-06-30T14:29:02.602Z,34.30
2018-06-30T14:31:31.553Z,34.30
2018-06-30T14:34:00.604Z,34.30
2018-06-30T14:36:29.541Z,34.30
2018-06-30T14:38:58.472Z,34.20
2018-06-30T14:41:28.237Z,34.20
2018-06-30T14:43:57.663Z,34.10
2018-06-30T14:46:26.589Z,34.00
2018-06-30T14:48:55.510Z,33.90
2018-06-30T14:51:24.448Z,33.90
2018-06-30T14:53:53.352Z,33.80
2018-06-30T14:56:22.253Z,33.70
2018-06-30T14:58:51.153Z,33.60
2018-06-30T15:01:20.081Z,33.60
2018-06-30T15:03:48.970Z,33.60
2018-06-30T15:06:17.984Z,33.50
2018-06-30T15:08:46.928Z,33.50
2018-06-30T15:11:15.861Z,33.30
2018-06-30T15:13:44.914Z,33.30
2018-06-30T15:16:14.051Z,33.30
2018-06-30T15:18:43.460Z,33.20
2018-06-30T15:21:12.615Z,33.10
2018-06-30T15:23:41.529Z,33.10
2018-06-30T15:26:13.016Z,33.10
2018-06-30T15:28:42.096Z,33.00
2018-06-30T15:31:11.265Z,33.00
2018-06-30T15:33:40.165Z,33.00
2018-06-30T15:36:09.169Z,32.90
2018-06-30T15:38:38.081Z,32.80
2018-06-30T15:41:08.678Z,32.70
2018-06-30T15:43:40.603Z,32.70
2018-06-30T15:46:19.643Z,32.60
2018-06-30T15:48:48.646Z,32.60
2018-06-30T15:51:17.596Z,32.50
2018-06-30T15:53:46.513Z,32.40
2018-06-30T15:56:15.452Z,32.50
2018-06-30T15:58:44.384Z,32.40
2018-06-30T16:01:16.353Z,32.40
2018-06-30T16:03:45.381Z,32.30
2018-06-30T16:06:14.346Z,32.30
2018-06-30T16:08:43.364Z,32.20
2018-06-30T16:11:12.257Z,32.20
2018-06-30T16:18:41.121Z,32.10
2018-06-30T16:21:10.031Z,32.10
2018-06-30T16:23:38.989Z,31.70
2018-06-30T16:26:24.790Z,31.60
2018-06-30T16:29:01.224Z,31.60
2018-06-30T16:31:35.967Z,31.60
2018-06-30T16:34:05.013Z,31.60
2018-06-30T16:36:35.569Z,31.50
2018-06-30T16:39:06.505Z,31.50
2018-06-30T16:41:35.913Z,31.40
2018-06-30T16:44:05.458Z,31.40
2018-06-30T16:46:35.105Z,31.30
2018-06-30T16:49:04.220Z,31.30
2018-06-30T16:51:33.775Z,31.30
2018-06-30T16:54:02.690Z,31.20
2018-06-30T16:56:31.636Z,31.20
2018-06-30T16:59:00.531Z,31.20
2018-06-30T17:01:29.424Z,31.10
2018-06-30T17:03:58.604Z,31.10
2018-06-30T17:06:27.503Z,31.10
2018-06-30T17:08:56.501Z,31.10
2018-06-30T17:11:25.484Z,31.00
2018-06-30T17:13:54.660Z,31.00
2018-06-30T17:16:23.573Z,30.90
2018-06-30T17:18:52.445Z,30.80
2018-06-30T17:21:21.392Z,30.80
2018-06-30T17:23:50.972Z,30.70
2018-06-30T17:26:19.936Z,30.70
2018-06-30T17:28:49.289Z,30.60
2018-06-30T17:31:18.247Z,30.50
2018-06-30T17:33:47.131Z,30.40
2018-06-30T17:36:16.030Z,30.30
2018-06-30T17:38:44.944Z,30.30
2018-06-30T17:41:13.877Z,30.20
2018-06-30T17:43:45.352Z,30.20
2018-06-30T17:46:14.298Z,30.10
2018-06-30T17:48:43.196Z,30.00
2018-06-30T17:51:12.197Z,30.00
2018-06-30T17:53:41.093Z,30.00
2018-06-30T17:56:10.084Z,29.90
2018-06-30T17:58:39.048Z,29.90
2018-06-30T18:03:36.481Z,29.70
2018-06-30T18:06:06.268Z,29.70
2018-06-30T18:08:35.193Z,29.60
2018-06-30T18:11:04.205Z,29.50
2018-06-30T18:13:33.100Z,29.50
2018-06-30T18:16:02.409Z,29.40
2018-06-30T18:18:31.343Z,29.40
2018-06-30T18:21:00.338Z,29.20
2018-06-30T18:23:29.251Z,29.20
2018-06-30T18:25:58.208Z,29.10
2018-06-30T18:28:27.118Z,29.00
2018-06-30T18:30:56.019Z,29.00
2018-06-30T18:33:24.922Z,28.90
2018-06-30T18:35:53.836Z,28.80
2018-06-30T18:38:22.753Z,28.70
2018-06-30T18:40:51.726Z,28.60
2018-06-30T18:43:20.685Z,28.60
2018-06-30T18:45:49.715Z,28.50
2018-06-30T18:48:18.838Z,28.40
2018-06-30T18:50:47.761Z,28.30
2018-06-30T18:53:16.691Z,28.30
2018-06-30T18:55:46.568Z,28.20
2018-06-30T18:58:15.886Z,28.10
2018-06-30T19:00:44.986Z,28.00
2018-06-30T19:03:17.780Z,27.90
2018-06-30T19:05:47.241Z,27.80
2018-06-30T19:08:16.241Z,27.70
2018-06-30T19:10:45.189Z,27.60
2018-06-30T19:13:14.122Z,27.40
2018-06-30T19:15:43.037Z,27.40
2018-06-30T19:20:40.469Z,27.10
2018-06-30T19:23:09.406Z,27.00
2018-06-30T19:25:38.341Z,26.90
2018-06-30T19:28:07.361Z,26.70
2018-06-30T19:30:36.310Z,26.60
2018-06-30T19:33:05.346Z,26.40
2018-06-30T19:35:34.259Z,26.20
2018-06-30T19:38:03.173Z,26.10
2018-06-30T19:40:32.097Z,26.00
2018-06-30T19:43:01.057Z,25.80
2018-06-30T19:45:30.063Z,25.70
2018-06-30T19:47:58.992Z,25.60
2018-06-30T19:50:27.934Z,25.40
2018-06-30T19:52:56.934Z,25.20
2018-06-30T19:55:25.869Z,25.00
2018-06-30T19:57:54.797Z,24.90
2018-06-30T20:00:23.734Z,24.70
2018-06-30T20:02:52.644Z,24.60
2018-06-30T20:05:21.567Z,24.50
2018-06-30T20:07:53.808Z,24.30
2018-06-30T20:10:23.676Z,24.20
2018-06-30T20:12:52.737Z,24.00
2018-06-30T20:15:21.938Z,23.80
2018-06-30T20:17:50.854Z,23.80
2018-06-30T20:20:19.805Z,23.70
2018-06-30T20:22:48.801Z,23.60
2018-06-30T20:25:18.224Z,23.60
2018-06-30T20:27:47.162Z,23.50
2018-06-30T20:30:16.089Z,23.40
2018-06-30T20:32:45.078Z,23.40
2018-06-30T20:35:13.994Z,23.40
2018-06-30T20:37:42.939Z,23.40
2018-06-30T20:40:12.530Z,23.30
2018-06-30T20:42:41.812Z,23.20
2018-06-30T20:45:10.893Z,23.00
2018-06-30T20:47:40.122Z,22.90
2018-06-30T20:50:09.196Z,22.80
2018-06-30T20:52:38.749Z,22.60
2018-06-30T20:55:08.357Z,22.60
2018-06-30T20:57:37.600Z,22.40
2018-06-30T21:00:06.646Z,22.40
2018-06-30T21:02:35.565Z,22.40
2018-06-30T21:07:36.312Z,22.20
2018-06-30T21:10:05.934Z,22.10
2018-06-30T21:12:34.941Z,21.90
2018-06-30T21:17:32.532Z,21.90
2018-06-30T21:20:01.522Z,21.70
2018-06-30T21:22:30.476Z,21.70
2018-06-30T21:24:59.422Z,21.60
2018-06-30T21:27:29.317Z,21.50
2018-06-30T21:29:58.292Z,21.40
2018-06-30T21:32:27.249Z,21.40
2018-06-30T21:34:56.162Z,21.30
2018-06-30T21:37:26.602Z,21.30
2018-06-30T21:39:56.829Z,21.30
2018-06-30T21:42:25.862Z,21.20
2018-06-30T21:44:54.967Z,21.20
2018-06-30T21:47:23.974Z,21.10
2018-06-30T21:49:52.876Z,21.20
2018-06-30T21:52:21.785Z,21.20
2018-06-30T21:54:51.230Z,21.20
2018-06-30T21:57:20.185Z,21.10
2018-06-30T21:59:49.176Z,21.10
2018-06-30T22:02:18.069Z,21.00
2018-06-30T22:04:47.356Z,20.90
2018-06-30T22:07:17.140Z,20.90
2018-06-30T22:09:46.746Z,20.90
2018-06-30T22:12:16.420Z,20.90
2018-06-30T22:14:45.480Z,20.90
2018-06-30T22:17:14.576Z,20.80
2018-06-30T22:19:43.452Z,20.70
2018-06-30T22:22:12.348Z,20.70
2018-06-30T22:24:41.330Z,20.60
2018-06-30T22:27:10.673Z,20.50
2018-06-30T22:29:40.017Z,20.40
2018-06-30T22:32:10.128Z,20.30
2018-06-30T22:34:39.310Z,20.30
2018-06-30T22:37:08.250Z,20.20
2018-06-30T22:39:47.982Z,20.20
2018-06-30T22:42:16.917Z,20.20
2018-06-30T22:44:46.158Z,20.10
2018-06-30T22:47:15.236Z,20.10
2018-06-30T22:49:44.319Z,20.00
2018-06-30T22:52:13.285Z,19.90
2018-06-30T22:54:42.261Z,19.90
2018-06-30T22:57:12.437Z,19.80
2018-06-30T22:59:44.974Z,19.80
2018-06-30T23:02:13.979Z,19.80
2018-06-30T23:04:42.917Z,19.80
2018-06-30T23:07:11.857Z,19.70
2018-06-30T23:09:40.757Z,19.70
2018-06-30T23:12:09.694Z,19.70
2018-06-30T23:14:38.601Z,19.70
2018-06-30T23:17:07.962Z,19.70
2018-06-30T23:19:36.914Z,19.60
2018-06-30T23:24:38.506Z,19.50
2018-06-30T23:27:07.478Z,19.50
2018-06-30T23:29:36.373Z,19.50
2018-06-30T23:32:05.381Z,19.50
2018-06-30T23:34:34.289Z,19.40
2018-06-30T23:37:03.889Z,19.30
2018-06-30T23:39:32.813Z,19.30
2018-06-30T23:42:01.755Z,19.30
2018-06-30T23:44:33.008Z,19.30
2018-06-30T23:47:01.993Z,19.30
2018-06-30T23:49:31.976Z,19.20
2018-06-30T23:52:00.913Z,19.20
2018-06-30T23:54:29.936Z,19.20
2018-06-30T23:56:58.881Z,19.20
2018-06-30T23:59:27.801Z,19.20
